Time;durP1;ratioP1;P1;durP2;ratioP2;P2;SDS_P1;SDS_P2;PMS_P1;PMS_P2;Temp;Humidity;BMP_temperature;BMP_pressure;BME280_temperature;BME280_humidity;BME280_pressure;Samples;Min_cycle;Max_cycle;Signal;HPM_P1;HPM_P2
2021/06/21 00:00:32;;;;;;;12.07;10.65;;;;;;;18.27;67.92;96666.62;1764463;81;26556;-85
2021/06/21 00:03:01;;;;;;;15.88;10.98;;;;;;;18.26;67.93;96666.90;1758979;81;25733;-83
2021/06/21 00:05:27;;;;;;;13.53;11.03;;;;;;;18.20;68.02;96681.14;1746943;79;27444;-83
2021/06/21 00:07:54;;;;;;;13.05;10.40;;;;;;;18.13;68.05;96673.76;1733611;81;25785;-83
2021/06/21 00:10:21;;;;;;;14.70;10.80;;;;;;;18.17;68.24;96681.68;1755753;79;25738;-83
2021/06/21 00:12:48;;;;;;;14.75;11.22;;;;;;;18.13;68.24;96682.50;1762780;79;25773;-82
2021/06/21 00:15:19;;;;;;;13.18;10.55;;;;;;;18.13;68.17;96681.95;1750431;81;25703;-82
2021/06/21 00:17:47;;;;;;;12.67;10.87;;;;;;;18.15;68.31;96687.96;1764442;81;28429;-83
2021/06/21 00:20:16;;;;;;;13.43;10.55;;;;;;;18.12;68.50;96678.95;1764114;81;25760;-82
2021/06/21 00:22:43;;;;;;;12.13;10.75;;;;;;;18.07;68.46;96674.06;1763674;81;25725;-86
2021/06/21 00:25:12;;;;;;;12.37;10.50;;;;;;;18.06;68.54;96673.24;1755237;80;25737;-84
2021/06/21 00:27:40;;;;;;;13.22;11.00;;;;;;;18.01;68.61;96669.15;1740662;81;25632;-87
2021/06/21 00:30:10;;;;;;;14.73;10.90;;;;;;;17.93;68.57;96674.63;1757513;81;27948;-88
2021/06/21 00:32:40;;;;;;;12.95;11.53;;;;;;;17.95;68.74;96670.27;1758647;81;25798;-84
2021/06/21 00:35:08;;;;;;;13.55;10.23;;;;;;;17.96;68.73;96669.17;1762184;81;25750;-87
2021/06/21 00:37:35;;;;;;;14.78;11.15;;;;;;;17.93;68.75;96660.16;1761992;81;25761;-84
2021/06/21 00:40:03;;;;;;;11.65;10.45;;;;;;;17.88;68.81;96664.25;1762036;81;25790;-84
2021/06/21 00:42:29;;;;;;;12.15;10.90;;;;;;;17.86;68.87;96663.73;1754728;81;27414;-83
2021/06/21 00:44:56;;;;;;;12.40;10.40;;;;;;;17.86;68.90;96665.10;1758306;81;25745;-82
2021/06/21 00:47:22;;;;;;;13.25;10.95;;;;;;;17.84;68.97;96667.28;1749906;81;25710;-83
2021/06/21 00:49:49;;;;;;;12.18;10.78;;;;;;;17.78;69.02;96661.00;1737112;81;26068;-82
2021/06/21 00:52:17;;;;;;;14.38;10.30;;;;;;;17.73;69.10;96657.47;1749833;81;25974;-82
2021/06/21 00:54:45;;;;;;;10.58;9.50;;;;;;;17.66;69.09;96655.01;1758591;81;27387;-82
2021/06/21 00:57:12;;;;;;;10.85;9.75;;;;;;;17.67;69.22;96652.55;1761627;80;25692;-82
2021/06/21 00:59:39;;;;;;;10.70;9.53;;;;;;;17.69;69.23;96649.55;1758392;81;25820;-83
2021/06/21 01:02:06;;;;;;;10.65;9.35;;;;;;;17.69;69.21;96649.00;1749541;81;25809;-83
2021/06/21 01:04:33;;;;;;;11.97;10.23;;;;;;;17.62;69.25;96648.45;1757749;80;25706;-83
2021/06/21 01:07:00;;;;;;;11.90;10.78;;;;;;;17.53;69.29;96649.52;1761981;81;27481;-82
2021/06/21 01:09:26;;;;;;;11.63;9.98;;;;;;;17.53;69.50;96641.88;1759263;81;25262;-82
2021/06/21 01:12:04;;;;;;;14.73;10.30;;;;;;;17.53;69.45;96641.34;1756275;80;26377;-83
2021/06/21 01:14:50;;;;;;;12.47;9.73;;;;;;;17.51;69.49;96638.64;1762081;80;26512;-84
2021/06/21 01:17:22;;;;;;;16.90;10.65;;;;;;;17.47;69.50;96630.72;1761775;81;25677;-83
2021/06/21 01:20:24;;;;;;;16.30;10.72;;;;;;;17.37;69.70;96630.73;1753532;81;27344;-84
2021/06/21 01:23:30;;;;;;;13.45;10.45;;;;;;;17.27;69.96;96632.34;1740090;81;25928;-83
2021/06/21 01:26:16;;;;;;;14.80;10.78;;;;;;;17.20;70.21;96626.34;1761969;81;25658;-83
2021/06/21 01:29:06;;;;;;;11.05;9.60;;;;;;;17.23;70.28;96627.17;1735944;82;25742;-84
2021/06/21 01:32:09;;;;;;;13.75;10.68;;;;;;;17.23;70.16;96627.72;1732590;82;25722;-84
2021/06/21 01:34:41;;;;;;;10.98;9.90;;;;;;;17.09;70.07;96622.52;1734696;81;28286;-82
2021/06/21 01:37:08;;;;;;;14.33;10.13;;;;;;;17.07;70.28;96615.16;1694402;84;32530;-83
2021/06/21 01:39:36;;;;;;;13.03;10.23;;;;;;;17.04;70.35;96608.87;1723635;82;25782;-84
2021/06/21 01:42:10;;;;;;;14.60;10.88;;;;;;;16.93;70.31;96605.32;1731558;82;25757;-82
2021/06/21 01:44:43;;;;;;;14.40;10.93;;;;;;;16.86;70.57;96601.52;1734331;82;25769;-82
2021/06/21 01:47:14;;;;;;;14.07;9.98;;;;;;;16.78;70.91;96601.23;1733259;81;27383;-83
2021/06/21 01:49:44;;;;;;;17.02;10.80;;;;;;;16.74;71.26;96605.03;1734236;82;25758;-83
2021/06/21 01:52:13;;;;;;;15.63;10.93;;;;;;;16.73;71.28;96608.84;1731067;81;25839;-83
2021/06/21 01:54:48;;;;;;;11.50;10.08;;;;;;;16.77;71.43;96601.78;1704535;83;26534;-82
2021/06/21 01:57:25;;;;;;;12.43;9.78;;;;;;;16.78;71.41;96598.52;1735802;81;25737;-82
2021/06/21 01:59:53;;;;;;;13.50;9.75;;;;;;;16.83;71.35;96592.50;1696195;84;27400;-82
2021/06/21 02:02:23;;;;;;;16.00;10.78;;;;;;;16.88;71.18;96602.06;1742476;81;25753;-82
2021/06/21 02:04:54;;;;;;;14.00;10.05;;;;;;;16.89;71.04;96599.62;1754822;81;25710;-84
2021/06/21 02:07:25;;;;;;;13.95;10.10;;;;;;;16.84;71.02;96596.05;1760670;81;26450;-82
2021/06/21 02:09:55;;;;;;;14.45;9.78;;;;;;;16.83;71.14;96593.87;1755937;81;32375;-84
2021/06/21 02:12:25;;;;;;;12.30;10.00;;;;;;;16.78;71.17;96595.24;1754068;81;27414;-84
2021/06/21 02:14:51;;;;;;;15.35;9.88;;;;;;;16.80;71.19;96588.13;1759497;81;25801;-83
2021/06/21 02:17:25;;;;;;;13.93;10.38;;;;;;;16.82;71.15;96588.14;1761973;81;26445;-84
2021/06/21 02:19:54;;;;;;;12.93;9.98;;;;;;;16.82;71.13;96581.33;1715965;82;26551;-83
2021/06/21 02:22:23;;;;;;;12.03;9.95;;;;;;;16.74;71.03;96585.14;1724774;82;25801;-85
2021/06/21 02:24:52;;;;;;;13.80;11.00;;;;;;;16.72;71.17;96566.33;1745847;80;28493;-85
2021/06/21 02:27:20;;;;;;;13.10;10.00;;;;;;;16.71;71.16;96571.50;1736036;81;26320;-83
2021/06/21 02:29:49;;;;;;;11.60;10.05;;;;;;;16.65;71.30;96573.97;1743730;81;25785;-85
2021/06/21 02:32:17;;;;;;;15.72;10.20;;;;;;;16.51;71.35;96576.89;1723761;81;25861;-86
2021/06/21 02:34:44;;;;;;;13.53;10.75;;;;;;;16.52;71.57;96578.53;1728307;81;25888;-82
2021/06/21 02:37:11;;;;;;;18.02;9.88;;;;;;;16.55;71.59;96576.61;1752432;81;27239;-87
2021/06/21 02:39:39;;;;;;;20.12;13.08;;;;;;;16.56;71.67;96570.89;1732980;81;25790;-82
2021/06/21 02:42:06;;;;;;;25.90;13.98;;;;;;;16.56;71.64;96582.34;1742771;81;25728;-85
2021/06/21 02:44:33;;;;;;;26.57;16.97;;;;;;;16.56;71.58;96579.61;1743255;81;25727;-83
2021/06/21 02:47:02;;;;;;;18.20;12.13;;;;;;;16.53;71.59;96578.81;1725726;81;25755;-83
2021/06/21 02:49:29;;;;;;;20.32;11.70;;;;;;;16.47;71.59;96582.59;1741152;81;27411;-83
2021/06/21 02:52:05;;;;;;;16.27;11.08;;;;;;;16.46;71.65;96575.51;1728513;81;25671;-83
2021/06/21 02:54:46;;;;;;;12.18;9.78;;;;;;;16.47;71.72;96575.78;1724453;81;25775;-82
2021/06/21 02:57:30;;;;;;;14.98;10.72;;;;;;;16.45;71.75;96582.04;1751011;81;26285;-86
2021/06/21 02:59:58;;;;;;;17.32;11.10;;;;;;;16.37;71.81;96579.84;1752418;81;25963;-85
2021/06/21 03:02:26;;;;;;;15.78;10.25;;;;;;;16.39;72.11;96583.12;1733060;81;27472;-86
2021/06/21 03:04:53;;;;;;;14.23;11.20;;;;;;;16.33;72.09;96582.82;1735887;81;25280;-87
2021/06/21 03:07:22;;;;;;;13.48;11.05;;;;;;;16.30;72.27;96583.38;1744562;80;25689;-87
2021/06/21 03:09:50;;;;;;;17.92;10.43;;;;;;;16.33;72.40;96585.00;1725577;81;26442;-85
2021/06/21 03:12:22;;;;;;;16.20;10.88;;;;;;;16.35;72.36;96586.09;1729405;81;25694;-84
2021/06/21 03:14:49;;;;;;;17.82;12.05;;;;;;;16.36;72.41;96595.37;1752016;80;27402;-84
2021/06/21 03:17:20;;;;;;;18.35;11.28;;;;;;;16.35;72.45;96587.46;1749620;81;25857;-86
2021/06/21 03:19:47;;;;;;;14.00;11.10;;;;;;;16.38;72.46;96585.57;1749417;81;25713;-86
2021/06/21 03:22:18;;;;;;;16.10;11.05;;;;;;;16.39;72.42;96583.12;1735513;81;25797;-85
2021/06/21 03:24:51;;;;;;;16.67;11.57;;;;;;;16.38;72.39;96583.67;1747472;80;25656;-84
2021/06/21 03:27:18;;;;;;;16.90;11.00;;;;;;;16.30;72.44;96586.89;1766186;80;27461;-87
2021/06/21 03:29:45;;;;;;;14.87;11.28;;;;;;;16.25;72.72;96585.53;1777051;80;25779;-84
2021/06/21 03:32:32;;;;;;;17.23;12.20;;;;;;;16.25;72.87;96585.53;1777247;80;25663;-83
2021/06/21 03:35:01;;;;;;;18.23;11.95;;;;;;;16.31;73.07;96579.54;1756961;80;25700;-84
2021/06/21 03:37:29;;;;;;;17.35;11.22;;;;;;;16.35;73.13;96575.20;1777391;80;25792;-84
2021/06/21 03:39:57;;;;;;;19.27;11.63;;;;;;;16.41;73.07;96576.88;1776893;80;27586;-86
2021/06/21 03:42:24;;;;;;;12.88;11.10;;;;;;;16.46;72.96;96579.59;1777077;80;25888;-84
2021/06/21 03:44:53;;;;;;;16.93;10.68;;;;;;;16.50;72.88;96581.52;1777200;80;25820;-86
2021/06/21 03:47:20;;;;;;;39.38;12.28;;;;;;;16.56;72.87;96578.25;1777164;80;25935;-82
2021/06/21 03:49:48;;;;;;;23.62;11.83;;;;;;;16.58;72.79;96572.81;1777270;80;25713;-83
2021/06/21 03:52:16;;;;;;;13.30;10.80;;;;;;;16.62;72.78;96571.77;1777317;80;27414;-83
2021/06/21 03:54:43;;;;;;;16.80;10.88;;;;;;;16.65;72.82;96576.69;1777142;80;25686;-83
2021/06/21 03:57:10;;;;;;;15.93;11.18;;;;;;;16.67;72.85;96577.20;1776874;80;25758;-84
2021/06/21 03:59:37;;;;;;;21.00;11.57;;;;;;;16.70;72.83;96580.77;1777345;80;25717;-83
2021/06/21 04:02:04;;;;;;;17.40;11.38;;;;;;;16.76;72.83;96578.88;1777334;80;25891;-83
2021/06/21 04:04:31;;;;;;;16.52;11.73;;;;;;;16.80;72.80;96576.69;1777069;80;28059;-83
2021/06/21 04:06:57;;;;;;;20.65;11.30;;;;;;;16.83;72.71;96564.44;1776809;80;25705;-86
2021/06/21 04:09:24;;;;;;;21.95;11.45;;;;;;;16.85;72.72;96558.98;1771138;80;25306;-89
2021/06/21 04:11:51;;;;;;;15.90;11.80;;;;;;;16.89;72.76;96561.45;1777089;80;25830;-84
2021/06/21 04:14:17;;;;;;;20.02;12.03;;;;;;;16.92;72.71;96571.80;1777227;80;25729;-84
2021/06/21 04:16:44;;;;;;;19.45;12.55;;;;;;;16.97;72.72;96576.44;1777071;80;27525;-83
2021/06/21 04:19:11;;;;;;;15.25;11.48;;;;;;;17.00;72.76;96575.08;1777060;80;25720;-90
2021/06/21 04:21:38;;;;;;;20.10;12.63;;;;;;;17.03;72.76;96574.52;1777424;80;25232;-92
2021/06/21 04:24:06;;;;;;;16.40;12.07;;;;;;;17.07;72.84;96572.89;1777097;80;25824;-86
2021/06/21 04:26:33;;;;;;;17.98;12.25;;;;;;;17.10;72.87;96576.45;1777844;80;25724;-90
2021/06/21 04:28:59;;;;;;;18.73;14.60;;;;;;;17.14;72.90;96581.64;1787068;80;27570;-86
2021/06/21 04:31:26;;;;;;;19.27;14.78;;;;;;;17.18;72.92;96585.44;1787049;80;25769;-86
2021/06/21 04:33:52;;;;;;;17.05;12.90;;;;;;;17.24;72.93;96593.36;1787109;80;25736;-90
2021/06/21 04:36:19;;;;;;;16.30;12.28;;;;;;;17.29;72.94;96587.06;1777759;78;25738;-84
2021/06/21 04:38:45;;;;;;;19.37;12.58;;;;;;;17.34;72.93;96582.98;1786838;80;25673;-89
2021/06/21 04:41:12;;;;;;;21.12;13.45;;;;;;;17.41;72.92;96584.05;1776235;80;27581;-89
2021/06/21 04:43:38;;;;;;;16.07;13.03;;;;;;;17.45;72.97;96591.42;1781310;79;25791;-86
2021/06/21 04:46:05;;;;;;;18.35;12.68;;;;;;;17.48;72.96;96593.61;1787539;80;26313;-88
2021/06/21 04:48:32;;;;;;;23.07;14.63;;;;;;;17.57;73.07;96593.32;1784722;78;25779;-83
2021/06/21 04:50:59;;;;;;;23.75;14.35;;;;;;;17.63;73.10;96590.05;1779394;79;25683;-84
2021/06/21 04:53:25;;;;;;;23.22;13.65;;;;;;;17.71;73.15;96596.88;1786598;78;27356;-84
2021/06/21 04:55:52;;;;;;;20.90;13.53;;;;;;;17.78;73.05;96588.66;1779514;80;25746;-88
2021/06/21 04:58:18;;;;;;;20.10;12.82;;;;;;;17.85;73.01;96593.84;1785021;80;25668;-84
2021/06/21 05:00:45;;;;;;;18.35;13.05;;;;;;;17.92;72.99;96592.45;1787141;79;25819;-84
2021/06/21 05:03:11;;;;;;;21.82;13.65;;;;;;;18.00;73.03;96592.41;1787277;80;25780;-84
2021/06/21 05:05:38;;;;;;;23.25;13.00;;;;;;;18.07;73.25;96589.41;1787081;80;27351;-88
2021/06/21 05:08:06;;;;;;;19.35;13.45;;;;;;;18.13;73.35;96587.73;1786990;80;25774;-85
2021/06/21 05:10:33;;;;;;;18.10;12.63;;;;;;;18.22;73.26;96586.63;1787180;79;26154;-88
2021/06/21 05:12:59;;;;;;;21.10;12.60;;;;;;;18.30;73.23;96590.12;1787051;80;25786;-85
2021/06/21 05:15:26;;;;;;;20.97;13.95;;;;;;;18.38;73.27;96587.35;1785036;80;25487;-85
2021/06/21 05:17:53;;;;;;;22.50;13.75;;;;;;;18.45;73.41;96594.16;1774666;80;27534;-86
2021/06/21 05:20:19;;;;;;;23.70;13.00;;;;;;;18.55;73.41;96593.28;1777539;78;25751;-89
2021/06/21 05:22:48;;;;;;;20.15;13.08;;;;;;;18.63;73.42;96592.72;1785972;79;26300;-86
2021/06/21 05:25:14;;;;;;;16.10;12.70;;;;;;;18.69;73.41;96592.42;1779942;80;25748;-88
2021/06/21 05:27:41;;;;;;;19.40;13.18;;;;;;;18.78;73.39;96595.37;1780421;79;25735;-86
2021/06/21 05:30:10;;;;;;;20.57;13.20;;;;;;;18.87;73.39;96593.66;1785327;79;27615;-86
2021/06/21 05:32:36;;;;;;;21.07;12.98;;;;;;;18.95;73.29;96590.34;1787395;79;25711;-86
2021/06/21 05:35:05;;;;;;;18.45;11.57;;;;;;;19.04;73.23;96590.00;1789688;80;25721;-88
2021/06/21 05:37:32;;;;;;;20.80;12.30;;;;;;;19.13;73.18;96589.38;1783013;79;26299;-86
2021/06/21 05:39:58;;;;;;;13.08;10.75;;;;;;;19.23;73.12;96580.53;1769568;79;25744;-87
2021/06/21 05:42:25;;;;;;;17.35;10.60;;;;;;;19.26;73.12;96573.13;1789703;80;27573;-87
2021/06/21 05:44:52;;;;;;;16.73;10.80;;;;;;;19.46;73.04;96586.36;1789666;79;25698;-87
2021/06/21 05:47:18;;;;;;;11.80;9.93;;;;;;;19.62;73.04;96584.59;1789800;79;25696;-85
2021/06/21 05:49:45;;;;;;;12.85;9.83;;;;;;;19.80;72.73;96572.11;1781214;79;26606;-86
2021/06/21 05:52:12;;;;;;;18.30;9.63;;;;;;;19.92;72.39;96576.63;1784054;79;25747;-86
2021/06/21 05:54:38;;;;;;;17.75;10.32;;;;;;;20.02;71.97;96575.70;1789488;79;28427;-85
2021/06/21 05:57:05;;;;;;;16.67;9.90;;;;;;;20.14;71.77;96574.73;1783029;79;25738;-85
2021/06/21 05:59:32;;;;;;;15.38;9.75;;;;;;;20.25;71.43;96580.34;1789771;80;26356;-87
2021/06/21 06:01:59;;;;;;;15.72;10.13;;;;;;;20.35;71.21;96578.03;1779832;79;26399;-86
2021/06/21 06:04:26;;;;;;;16.10;10.40;;;;;;;20.45;70.98;96580.11;1742141;81;43147;-86
2021/06/21 06:06:53;;;;;;;15.03;9.88;;;;;;;20.62;70.87;96576.06;1778778;79;27976;-87
2021/06/21 06:09:20;;;;;;;11.55;8.25;;;;;;;20.73;70.50;96567.95;1784386;79;26303;-88
2021/06/21 06:11:48;;;;;;;16.23;9.18;;;;;;;20.81;70.23;96565.34;1787405;79;25824;-87
2021/06/21 06:14:15;;;;;;;22.40;11.10;;;;;;;20.92;70.00;96567.38;1770171;79;26559;-86
2021/06/21 06:16:42;;;;;;;16.10;8.85;;;;;;;21.02;69.94;96563.10;1767334;79;26578;-87
2021/06/21 06:19:09;;;;;;;19.45;9.98;;;;;;;21.13;69.73;96560.45;1781578;79;28153;-87
2021/06/21 06:21:35;;;;;;;18.12;9.93;;;;;;;21.24;69.45;96565.83;1783809;79;25720;-89
2021/06/21 06:24:02;;;;;;;17.50;9.30;;;;;;;21.33;69.33;96562.09;1789716;80;25688;-87
2021/06/21 06:26:28;;;;;;;17.70;8.30;;;;;;;21.44;69.14;96557.24;1785226;79;25803;-89
2021/06/21 06:28:56;;;;;;;17.10;8.30;;;;;;;21.54;68.79;96557.06;1785595;80;25775;-90
2021/06/21 06:31:23;;;;;;;11.68;7.28;;;;;;;21.63;68.46;96553.87;1786590;79;27426;-88
2021/06/21 06:33:50;;;;;;;10.63;7.80;;;;;;;21.70;67.99;96555.67;1777361;79;25230;-87
2021/06/21 06:36:16;;;;;;;12.28;6.58;;;;;;;21.80;67.63;96551.92;1785904;79;25782;-88
2021/06/21 06:38:43;;;;;;;13.05;7.70;;;;;;;21.89;67.51;96548.16;1777412;79;25888;-87
2021/06/21 06:41:09;;;;;;;12.50;7.33;;;;;;;21.99;67.05;96549.10;1778682;79;26440;-89
2021/06/21 06:43:36;;;;;;;13.90;6.50;;;;;;;22.09;66.72;96548.92;1790297;79;27429;-88
2021/06/21 06:46:02;;;;;;;14.68;6.28;;;;;;;22.22;66.82;96545.33;1790115;79;25712;-90
2021/06/21 06:48:30;;;;;;;16.00;6.70;;;;;;;22.33;66.35;96538.52;1790223;80;25756;-88
2021/06/21 06:50:59;;;;;;;17.25;7.05;;;;;;;22.45;65.64;96536.06;1782114;79;25739;-88
2021/06/21 06:53:30;;;;;;;16.57;7.37;;;;;;;22.54;65.43;96525.95;1780336;79;25227;-88
2021/06/21 06:58:39;;;;;;;13.43;5.83;;;;;;;22.84;64.11;96538.78;1789984;80;26038;-89
2021/06/21 07:01:05;;;;;;;18.75;5.22;;;;;;;22.84;64.11;96538.78;1782696;79;25764;-88
2021/06/21 07:03:32;;;;;;;13.15;5.45;;;;;;;22.96;63.99;96530.78;1780121;79;25748;-88
2021/06/21 07:05:58;;;;;;;10.40;5.28;;;;;;;23.05;63.77;96528.94;1790278;80;25862;-88
2021/06/21 07:08:25;;;;;;;12.10;5.33;;;;;;;23.14;63.60;96528.43;1788779;79;27567;-88
2021/06/21 07:10:52;;;;;;;15.43;5.85;;;;;;;23.24;63.22;96524.61;1782504;79;25752;-88
2021/06/21 07:13:18;;;;;;;14.55;5.45;;;;;;;23.50;63.23;96522.02;1789784;79;25723;-90
2021/06/21 07:15:45;;;;;;;12.80;5.10;;;;;;;23.50;63.23;96522.02;1777561;79;25783;-89
2021/06/21 07:18:11;;;;;;;19.23;5.30;;;;;;;23.63;62.36;96525.28;1777542;79;25759;-88
2021/06/21 07:20:38;;;;;;;12.98;4.72;;;;;;;23.76;62.15;96526.32;1786443;79;27593;-90
2021/06/21 07:23:04;;;;;;;14.68;5.33;;;;;;;23.85;61.81;96514.77;1777488;79;25290;-87
2021/06/21 07:25:31;;;;;;;11.57;4.97;;;;;;;23.93;61.35;96516.73;1777713;79;26369;-87
2021/06/21 07:27:58;;;;;;;10.85;4.97;;;;;;;24.03;61.10;96517.26;1781395;79;25677;-87
2021/06/21 07:30:25;;;;;;;11.25;4.35;;;;;;;24.14;60.55;96514.23;1787124;80;25700;-87
2021/06/21 07:32:52;;;;;;;10.98;4.47;;;;;;;24.25;60.36;96510.08;1787043;80;28634;-87
2021/06/21 07:35:19;;;;;;;10.30;4.65;;;;;;;24.36;59.83;96512.22;1786687;80;26412;-87
2021/06/21 07:37:46;;;;;;;9.80;4.40;;;;;;;24.50;59.24;96503.81;1781589;78;26385;-88
2021/06/21 07:40:13;;;;;;;10.03;4.70;;;;;;;24.60;58.73;96500.73;1787057;80;26489;-87
2021/06/21 07:42:39;;;;;;;11.25;4.72;;;;;;;24.71;58.62;96504.80;1781569;78;25756;-87
2021/06/21 07:45:07;;;;;;;18.20;4.78;;;;;;;24.85;58.58;96503.27;1787324;80;27028;-87
2021/06/21 07:47:34;;;;;;;10.38;5.03;;;;;;;24.97;58.44;96502.08;1786933;80;25700;-88
2021/06/21 07:50:00;;;;;;;12.63;4.60;;;;;;;25.11;58.33;96499.14;1787084;80;25700;-88
2021/06/21 07:52:27;;;;;;;12.10;4.70;;;;;;;25.30;57.37;96498.21;1786975;80;25713;-88
2021/06/21 07:54:58;;;;;;;24.82;12.25;;;;;;;25.45;56.93;96493.55;1786936;80;25873;-95
2021/06/21 07:57:22;;;;;;;12.78;5.33;;;;;;;25.57;56.49;96492.06;1780383;80;27388;-88
2021/06/21 07:59:49;;;;;;;12.93;5.10;;;;;;;25.72;56.16;96491.56;1782672;79;26286;-90
2021/06/21 08:02:15;;;;;;;12.50;4.50;;;;;;;25.92;55.50;96484.48;1778946;78;25652;-92
2021/06/21 08:04:42;;;;;;;15.13;5.20;;;;;;;26.24;55.18;96489.92;1781816;78;25636;-91
2021/06/21 08:07:08;;;;;;;14.87;4.97;;;;;;;26.63;54.52;96486.77;1787032;79;25765;-91
2021/06/21 08:09:35;;;;;;;13.10;4.30;;;;;;;27.09;54.25;96491.88;1787060;80;27072;-89
2021/06/21 08:12:02;;;;;;;10.00;4.03;;;;;;;27.57;53.54;96490.69;1784397;80;25723;-89
2021/06/21 08:14:28;;;;;;;13.53;4.60;;;;;;;28.05;52.74;96492.50;1780518;78;25679;-92
2021/06/21 08:16:55;;;;;;;16.48;4.03;;;;;;;28.50;51.68;96491.03;1785609;78;25672;-91
2021/06/21 08:19:21;;;;;;;13.58;3.75;;;;;;;28.89;50.46;96487.48;1774023;79;25764;-95
2021/06/21 08:21:48;;;;;;;13.25;3.75;;;;;;;29.27;49.96;96490.36;1774191;79;28297;-90
2021/06/21 08:24:15;;;;;;;11.35;3.85;;;;;;;29.62;49.36;96485.00;1779337;78;25656;-90
2021/06/21 08:26:41;;;;;;;15.58;4.00;;;;;;;29.92;49.16;96489.58;1788522;79;25305;-93
2021/06/21 08:29:08;;;;;;;8.98;3.85;;;;;;;30.20;48.35;96490.88;1790112;80;25861;-90
2021/06/21 08:31:35;;;;;;;12.40;3.50;;;;;;;30.48;47.65;96485.20;1790173;79;26404;-89
2021/06/21 08:34:01;;;;;;;10.48;3.47;;;;;;;30.68;47.52;96486.87;1790262;80;28134;-95
2021/06/21 08:36:28;;;;;;;10.48;3.50;;;;;;;30.97;46.75;96486.92;1786734;79;25797;-90
2021/06/21 08:38:55;;;;;;;11.85;3.30;;;;;;;31.21;45.57;96488.07;1777856;80;25292;-93
2021/06/21 08:41:22;;;;;;;31.97;4.17;;;;;;;31.46;45.35;96494.95;1777745;79;25820;-92
2021/06/21 08:43:49;;;;;;;6.67;3.35;;;;;;;31.78;44.71;96480.23;1783607;79;25322;-95
2021/06/21 08:46:17;;;;;;;13.25;3.77;;;;;;;32.05;44.18;96489.48;1781222;79;27305;-93
2021/06/21 08:48:55;;;;;;;11.03;3.50;;;;;;;32.30;43.23;96485.74;1790199;80;25246;-94
2021/06/21 08:51:16;;;;;;;16.03;3.57;;;;;;;32.50;42.28;96486.44;1788108;79;25815;-95
2021/06/21 08:53:43;;;;;;;10.85;3.30;;;;;;;32.70;41.56;96483.77;1790266;80;25763;-93
2021/06/21 08:56:10;;;;;;;10.95;3.22;;;;;;;32.94;41.33;96475.55;1790363;80;25823;-94
2021/06/21 08:58:37;;;;;;;11.28;2.92;;;;;;;33.20;40.42;96476.90;1789893;79;27180;-92
2021/06/21 09:01:04;;;;;;;10.03;3.05;;;;;;;33.47;39.75;96478.22;1789815;80;25242;-92
2021/06/21 09:03:33;;;;;;;14.40;3.33;;;;;;;33.69;38.87;96485.67;1787321;79;25810;-91
2021/06/21 09:06:00;;;;;;;10.03;3.35;;;;;;;33.89;38.53;96475.91;1776784;79;25767;-90
2021/06/21 09:08:27;;;;;;;17.40;3.75;;;;;;;34.06;38.04;96472.23;1778184;79;25239;-92
2021/06/21 09:10:54;;;;;;;19.02;3.83;;;;;;;34.25;38.07;96482.63;1789907;79;27483;-93
2021/06/21 09:13:21;;;;;;;13.58;3.40;;;;;;;34.38;37.26;96479.56;1789757;79;25790;-87
2021/06/21 09:15:53;;;;;;;11.57;3.47;;;;;;;34.41;36.38;96476.80;1790213;80;25653;-90
2021/06/21 09:18:35;;;;;;;9.75;3.33;;;;;;;34.58;35.97;96473.89;1790208;80;25896;-91
2021/06/21 09:21:30;;;;;;;7.83;2.95;;;;;;;34.77;35.39;96479.86;1787153;79;25657;-92
2021/06/21 09:24:01;;;;;;;12.10;3.72;;;;;;;34.85;35.25;96476.70;1790041;79;27359;-90
2021/06/21 09:26:30;;;;;;;;;;;;;;;35.06;35.07;96469.00;1788058;79;25673;-91
2021/06/21 09:29:00;;;;;;;14.35;4.03;;;;;;;35.06;34.40;96463.98;1785458;79;26445;-92
2021/06/21 09:31:27;;;;;;;10.50;3.27;;;;;;;35.24;35.06;96471.89;1789951;79;25733;-92
2021/06/21 09:34:13;;;;;;;9.25;3.20;;;;;;;35.35;34.22;96473.57;1782449;79;25680;-90
2021/06/21 09:36:40;;;;;;;8.33;2.65;;;;;;;35.32;34.05;96467.94;1783021;79;27452;-89
2021/06/21 09:39:23;;;;;;;10.95;3.02;;;;;;;35.13;34.20;96477.46;1785033;79;25712;-93
2021/06/21 09:42:22;;;;;;;6.55;3.15;;;;;;;35.13;34.26;96471.84;1790141;79;25768;-86
2021/06/21 09:45:02;;;;;;;11.97;3.42;;;;;;;35.29;33.88;96471.53;1780301;79;25850;-88
2021/06/21 09:47:35;;;;;;;9.77;3.30;;;;;;;35.38;33.30;96470.58;1785769;80;26060;-89
2021/06/21 09:50:22;;;;;;;10.82;3.05;;;;;;;35.46;32.97;96465.78;1780997;79;28308;-90
2021/06/21 09:52:55;;;;;;;11.03;3.40;;;;;;;35.45;32.65;96466.98;1789809;80;26263;-89
2021/06/21 09:55:40;;;;;;;11.15;3.52;;;;;;;35.49;32.66;96463.00;1773817;79;25749;-87
2021/06/21 09:58:14;;;;;;;10.55;3.15;;;;;;;35.43;32.29;96458.15;1758361;80;25913;-87
2021/06/21 10:00:45;;;;;;;11.73;3.30;;;;;;;35.32;32.11;96456.12;1785990;79;26587;-90
2021/06/21 10:03:26;;;;;;;11.33;3.35;;;;;;;35.21;32.44;96459.45;1790527;80;26819;-88
2021/06/21 10:06:09;;;;;;;11.88;3.20;;;;;;;35.32;32.12;96457.52;1789962;80;26061;-90
2021/06/21 10:08:49;;;;;;;9.90;3.67;;;;;;;35.42;31.79;96450.93;1781062;79;25662;-91
2021/06/21 10:11:37;;;;;;;12.35;3.45;;;;;;;35.42;31.87;96446.72;1789975;80;26459;-87
2021/06/21 10:14:08;;;;;;;10.23;3.37;;;;;;;35.39;32.43;96444.91;1764940;79;25770;-87
2021/06/21 10:16:36;;;;;;;7.55;3.58;;;;;;;35.35;32.37;96438.50;1785812;79;28215;-86
2021/06/21 10:19:05;;;;;;;9.10;3.60;;;;;;;35.35;31.94;96446.92;1778270;79;25880;-89
2021/06/21 10:21:33;;;;;;;6.03;3.67;;;;;;;35.26;31.92;96446.46;1788456;79;25752;-87
2021/06/21 10:24:00;;;;;;;9.00;3.12;;;;;;;35.31;31.91;96446.09;1789794;79;26345;-90
2021/06/21 10:26:27;;;;;;;5.75;3.27;;;;;;;35.26;31.38;96446.46;1777344;79;25925;-88
2021/06/21 10:28:54;;;;;;;6.25;3.30;;;;;;;35.15;31.13;96439.98;1776046;80;27459;-91
2021/06/21 10:31:26;;;;;;;14.25;5.17;;;;;;;35.06;31.35;96438.15;1774575;78;26265;-90
2021/06/21 10:33:59;;;;;;;12.93;4.37;;;;;;;35.04;31.35;96439.13;1775578;80;25787;-87
2021/06/21 10:36:49;;;;;;;9.83;3.52;;;;;;;34.91;31.13;96436.47;1785756;80;26665;-91
2021/06/21 10:39:22;;;;;;;10.82;3.47;;;;;;;34.85;31.49;96437.45;1786500;79;25834;-91
2021/06/21 10:42:12;;;;;;;7.45;3.45;;;;;;;34.92;31.84;96438.08;1785654;78;28298;-91
2021/06/21 10:44:56;;;;;;;11.80;3.60;;;;;;;35.10;31.62;96433.37;1750396;80;26433;-89
2021/06/21 10:47:40;;;;;;;10.28;3.67;;;;;;;35.20;33.04;96433.20;1753973;81;25744;-89
2021/06/21 10:50:23;;;;;;;8.83;2.92;;;;;;;35.15;33.60;96435.77;1785883;80;26564;-90
2021/06/21 10:52:55;;;;;;;12.78;6.25;;;;;;;35.10;33.50;96422.75;1750622;81;25753;-89
2021/06/21 10:55:32;;;;;;;8.23;3.37;;;;;;;35.04;33.48;96422.31;1748326;80;27449;-91
2021/06/21 10:58:03;;;;;;;13.38;3.50;;;;;;;35.00;33.54;96419.52;1786614;80;25634;-90
2021/06/21 11:00:46;;;;;;;13.03;3.45;;;;;;;34.98;33.82;96413.49;1760667;81;25749;-89
2021/06/21 11:03:33;;;;;;;12.35;3.70;;;;;;;35.16;34.32;96406.53;1761811;81;26566;-90
2021/06/21 11:06:24;;;;;;;11.88;3.72;;;;;;;35.31;33.65;96408.81;1764541;81;25704;-91
2021/06/21 11:08:54;;;;;;;9.33;3.58;;;;;;;35.42;34.00;96403.23;1764889;81;27360;-91
2021/06/21 11:11:43;;;;;;;12.93;3.95;;;;;;;35.53;33.50;96410.47;1764501;81;25725;-89
2021/06/21 11:14:22;;;;;;;14.35;3.35;;;;;;;35.43;33.82;96400.03;1744335;81;25681;-92
2021/06/21 11:16:53;;;;;;;9.75;3.75;;;;;;;35.19;33.80;96397.94;1761470;81;25788;-88
2021/06/21 11:19:26;;;;;;;12.13;3.63;;;;;;;34.98;34.21;96398.67;1730268;81;25740;-88
2021/06/21 11:22:00;;;;;;;9.13;3.00;;;;;;;34.99;34.26;96397.47;1764555;81;27395;-93
2021/06/21 11:24:49;;;;;;;8.98;3.27;;;;;;;34.99;34.44;96397.47;1761804;80;25778;-90
2021/06/21 11:27:25;;;;;;;11.73;3.50;;;;;;;34.86;33.73;96396.21;1764659;81;25758;-90
2021/06/21 11:29:58;;;;;;;12.47;4.05;;;;;;;34.22;34.26;96390.17;1743461;80;25782;-90
2021/06/21 11:32:26;;;;;;;9.00;3.08;;;;;;;33.93;34.86;96389.17;1760882;80;25634;-88
2021/06/21 11:35:01;;;;;;;16.12;3.47;;;;;;;33.95;35.01;96386.77;1742476;81;27226;-91
2021/06/21 11:37:39;;;;;;;15.28;4.20;;;;;;;33.95;34.76;96383.37;1763403;81;25756;-89